Time;durP1;ratioP1;P1;durP2;ratioP2;P2;SDS_P1;SDS_P2;PMS_P1;PMS_P2;Temp;Humidity;BMP_temperature;BMP_pressure;BME280_temperature;BME280_humidity;BME280_pressure;Samples;Min_cycle;Max_cycle;Signal;HPM_P1;HPM_P2
2021/07/20 00:00:43;;;;;;;12.77;11.20;;;23.30;99.90;;;;;;6187642;23;20487;-92
2021/07/20 00:03:10;;;;;;;14.43;12.33;;;23.30;99.90;;;;;;6188877;23;20167;-95
2021/07/20 00:05:42;;;;;;;13.70;11.00;;;23.30;99.90;;;;;;6187998;23;20234;-96
2021/07/20 00:08:10;;;;;;;13.20;11.30;;;23.30;99.90;;;;;;6188980;23;20408;-95
2021/07/20 00:10:38;;;;;;;12.30;11.00;;;23.20;99.90;;;;;;6200684;23;20398;-95
2021/07/20 00:13:05;;;;;;;13.30;11.50;;;23.20;99.90;;;;;;6202874;23;20404;-93
2021/07/20 00:15:32;;;;;;;13.50;11.63;;;23.20;99.90;;;;;;6196873;23;20368;-94
2021/07/20 00:18:05;;;;;;;13.03;11.40;;;23.20;99.90;;;;;;6190704;23;20409;-92
2021/07/20 00:20:31;;;;;;;16.00;12.53;;;23.20;99.90;;;;;;6187937;23;20432;-96
2021/07/20 00:22:56;;;;;;;13.00;11.53;;;23.20;99.90;;;;;;6187609;23;20401;-95
2021/07/20 00:25:23;;;;;;;14.07;11.80;;;23.20;99.90;;;;;;6187919;23;20229;-91
2021/07/20 00:27:48;;;;;;;11.90;10.70;;;23.20;99.90;;;;;;6187634;23;20490;-92
2021/07/20 00:30:15;;;;;;;15.77;12.27;;;23.20;99.90;;;;;;6189416;23;20407;-93
2021/07/20 00:32:42;;;;;;;15.17;12.30;;;23.20;99.90;;;;;;6194033;23;20176;-96
2021/07/20 00:35:11;;;;;;;12.83;10.63;;;23.20;99.90;;;;;;6188162;23;20396;-96
2021/07/20 00:37:37;;;;;;;15.33;12.13;;;23.20;99.90;;;;;;6187286;23;20510;-96
2021/07/20 00:40:05;;;;;;;18.00;11.77;;;23.20;99.90;;;;;;6187686;23;20405;-93
2021/07/20 00:42:31;;;;;;;13.13;11.77;;;23.20;99.90;;;;;;6187609;23;20424;-96
2021/07/20 00:44:57;;;;;;;14.07;10.90;;;23.20;99.90;;;;;;6187862;23;20401;-93
2021/07/20 00:47:22;;;;;;;12.57;10.87;;;23.10;99.90;;;;;;6187394;23;20400;-93
2021/07/20 00:49:48;;;;;;;13.63;11.20;;;23.20;99.90;;;;;;6189549;23;20159;-96
2021/07/20 00:52:14;;;;;;;15.87;12.17;;;23.10;99.90;;;;;;6187820;23;20201;-93
2021/07/20 00:54:40;;;;;;;11.93;10.70;;;23.20;99.90;;;;;;6188968;23;20167;-93
2021/07/20 00:57:06;;;;;;;11.87;9.97;;;23.20;99.90;;;;;;6191095;23;20434;-92
2021/07/20 00:59:33;;;;;;;11.50;10.17;;;23.10;99.90;;;;;;6193276;23;20404;-96
2021/07/20 01:01:59;;;;;;;13.20;10.43;;;23.10;99.90;;;;;;6191936;23;20469;-92
2021/07/20 01:04:25;;;;;;;11.97;9.93;;;23.10;99.90;;;;;;6189238;23;20393;-95
2021/07/20 01:06:52;;;;;;;14.23;10.97;;;23.10;99.90;;;;;;6187409;23;20172;-95
2021/07/20 01:09:18;;;;;;;12.17;10.97;;;23.10;99.90;;;;;;6195258;23;20467;-95
2021/07/20 01:11:44;;;;;;;13.13;10.83;;;23.10;99.90;;;;;;6187486;23;20408;-93
2021/07/20 01:14:11;;;;;;;12.30;10.77;;;23.00;99.90;;;;;;6187391;23;20429;-93
2021/07/20 01:16:38;;;;;;;13.10;10.37;;;23.00;99.90;;;;;;6187711;23;20878;-92
2021/07/20 01:19:06;;;;;;;12.07;10.77;;;23.00;99.90;;;;;;6187669;23;20878;-96
2021/07/20 01:21:34;;;;;;;12.80;11.30;;;23.00;99.90;;;;;;6189055;23;20433;-96
2021/07/20 01:24:04;;;;;;;13.63;10.73;;;23.00;99.90;;;;;;6187289;23;20428;-95
2021/07/20 01:26:30;;;;;;;13.87;11.17;;;23.00;99.90;;;;;;6187683;23;20465;-92
2021/07/20 01:28:56;;;;;;;12.03;10.73;;;23.00;99.90;;;;;;6186998;23;20510;-93
2021/07/20 01:31:24;;;;;;;12.60;10.20;;;23.00;99.90;;;;;;6187391;23;20175;-96
2021/07/20 01:33:53;;;;;;;12.27;10.47;;;23.00;99.90;;;;;;6186759;23;20390;-93
2021/07/20 01:36:21;;;;;;;13.23;11.30;;;23.00;99.90;;;;;;6187347;23;20475;-93
2021/07/20 01:38:49;;;;;;;14.20;11.20;;;23.00;99.90;;;;;;6187222;23;20498;-94
2021/07/20 01:41:17;;;;;;;12.00;10.27;;;23.00;99.90;;;;;;6187442;23;20452;-96
2021/07/20 01:43:47;;;;;;;15.80;11.53;;;23.00;99.90;;;;;;6192077;23;20389;-96
2021/07/20 01:46:15;;;;;;;14.20;11.87;;;23.00;99.90;;;;;;6187714;23;20543;-96
2021/07/20 01:48:45;;;;;;;12.07;10.77;;;23.00;99.90;;;;;;6186925;23;20398;-92
2021/07/20 01:51:12;;;;;;;15.67;11.13;;;22.90;99.90;;;;;;6187332;23;20420;-95
2021/07/20 01:53:39;;;;;;;13.03;11.30;;;22.90;99.90;;;;;;6188445;23;20394;-93
2021/07/20 01:56:08;;;;;;;14.33;11.10;;;22.90;99.90;;;;;;6186929;23;20408;-96
2021/07/20 01:58:38;;;;;;;11.23;10.07;;;22.90;99.90;;;;;;6192787;23;20483;-94
2021/07/20 02:01:05;;;;;;;12.63;10.90;;;22.90;99.90;;;;;;6188149;23;20453;-94
2021/07/20 02:09:21;;;;;;;13.10;10.60;;;22.80;99.90;;;;;;6188813;23;20499;-93
2021/07/20 02:11:49;;;;;;;13.73;11.23;;;22.80;99.90;;;;;;6186811;23;20419;-93
2021/07/20 02:14:16;;;;;;;16.67;11.40;;;22.80;99.90;;;;;;6187083;23;20863;-96
2021/07/20 02:16:47;;;;;;;13.80;11.47;;;22.80;99.90;;;;;;6192192;23;20407;-95
2021/07/20 02:19:46;;;;;;;15.90;11.93;;;22.80;99.90;;;;;;6194404;23;20452;-96
2021/07/20 02:22:18;;;;;;;13.23;10.50;;;22.80;99.90;;;;;;6158548;23;20445;-92
2021/07/20 02:24:45;;;;;;;18.20;12.43;;;22.70;99.90;;;;;;6188760;23;20406;-93
2021/07/20 02:27:12;;;;;;;13.13;11.73;;;22.70;99.90;;;;;;6189197;23;20408;-94
2021/07/20 02:29:39;;;;;;;12.83;10.67;;;22.70;99.90;;;;;;6187216;23;20447;-96
2021/07/20 02:32:06;;;;;;;12.80;11.10;;;22.70;99.90;;;;;;6190501;23;20419;-93
2021/07/20 02:34:36;;;;;;;14.57;11.87;;;22.70;99.90;;;;;;6196156;23;20407;-94
2021/07/20 02:37:04;;;;;;;14.43;12.63;;;22.70;99.90;;;;;;6186852;23;20814;-93
2021/07/20 02:39:31;;;;;;;14.80;12.40;;;22.70;99.90;;;;;;6196435;23;20394;-93
2021/07/20 02:41:59;;;;;;;17.33;11.90;;;22.70;99.90;;;;;;6191324;23;20452;-92
2021/07/20 02:44:26;;;;;;;13.70;12.30;;;22.70;99.90;;;;;;6192315;23;20384;-93
2021/07/20 02:46:52;;;;;;;13.70;11.37;;;22.70;99.90;;;;;;6190910;23;20391;-93
2021/07/20 02:49:19;;;;;;;14.10;12.50;;;22.70;99.90;;;;;;6190082;23;20396;-92
2021/07/20 02:51:48;;;;;;;13.23;11.23;;;22.70;99.90;;;;;;6186342;23;20794;-95
2021/07/20 02:54:16;;;;;;;19.50;13.70;;;22.70;99.90;;;;;;6186457;23;20404;-96
2021/07/20 02:56:43;;;;;;;13.33;11.77;;;22.70;99.90;;;;;;6186177;23;20395;-96
2021/07/20 02:59:14;;;;;;;12.83;11.50;;;22.70;99.90;;;;;;6186476;23;20533;-95
2021/07/20 03:01:41;;;;;;;13.83;11.60;;;22.70;99.90;;;;;;6188441;23;20451;-94
2021/07/20 03:04:08;;;;;;;14.03;12.53;;;22.70;99.90;;;;;;6188943;23;20385;-94
2021/07/20 03:06:35;;;;;;;14.80;13.27;;;22.70;99.90;;;;;;6186292;23;20889;-96
2021/07/20 03:09:02;;;;;;;13.40;12.00;;;22.70;99.90;;;;;;6186693;23;20543;-95
2021/07/20 03:11:37;;;;;;;13.53;12.13;;;22.70;99.90;;;;;;6186626;23;20727;-95
2021/07/20 03:14:08;;;;;;;15.13;13.17;;;22.70;99.90;;;;;;6196799;23;20444;-94
2021/07/20 03:16:37;;;;;;;15.33;11.53;;;22.70;99.90;;;;;;6186294;23;20404;-96
2021/07/20 03:19:05;;;;;;;18.20;12.53;;;22.60;99.90;;;;;;6186634;23;20389;-96
2021/07/20 03:21:33;;;;;;;16.60;12.80;;;22.70;99.90;;;;;;6187474;23;20475;-96
2021/07/20 03:24:02;;;;;;;13.43;11.50;;;22.70;99.90;;;;;;6186351;23;20849;-96
2021/07/20 03:26:28;;;;;;;13.93;12.23;;;22.70;99.90;;;;;;6186653;23;20411;-96
2021/07/20 03:28:55;;;;;;;15.40;12.60;;;22.70;99.90;;;;;;6187293;23;20393;-94
2021/07/20 03:31:21;;;;;;;13.37;11.70;;;22.70;99.90;;;;;;6188433;23;20400;-96
2021/07/20 03:33:48;;;;;;;16.83;13.00;;;22.70;99.90;;;;;;6188622;23;20716;-96
2021/07/20 03:36:14;;;;;;;14.83;12.17;;;22.70;99.90;;;;;;6188037;23;20400;-93
2021/07/20 03:38:43;;;;;;;13.93;12.33;;;22.70;99.90;;;;;;6188308;23;20523;-96
2021/07/20 03:41:10;;;;;;;14.07;12.23;;;22.60;99.90;;;;;;6188595;23;20483;-95
2021/07/20 03:43:37;;;;;;;14.90;12.60;;;22.70;99.90;;;;;;6188037;23;20465;-92
2021/07/20 03:46:04;;;;;;;17.50;14.10;;;22.70;99.90;;;;;;6189696;23;20407;-96
2021/07/20 03:48:30;;;;;;;14.30;11.63;;;22.70;99.90;;;;;;6188505;23;20411;-96
2021/07/20 03:50:57;;;;;;;13.47;11.93;;;22.60;99.90;;;;;;6187697;23;20411;-96
2021/07/20 03:53:28;;;;;;;14.17;12.67;;;22.70;99.90;;;;;;6188895;23;20781;-94
2021/07/20 03:55:57;;;;;;;17.33;14.70;;;22.70;99.90;;;;;;6194558;23;20449;-90
2021/07/20 03:58:24;;;;;;;19.47;13.10;;;22.70;99.90;;;;;;6205078;23;20392;-93
2021/07/20 04:00:52;;;;;;;12.30;11.00;;;22.70;99.90;;;;;;6206716;23;20512;-93
2021/07/20 04:03:22;;;;;;;14.97;12.10;;;22.70;99.90;;;;;;6193689;23;20396;-96
2021/07/20 04:05:51;;;;;;;12.60;11.30;;;22.70;99.90;;;;;;6188966;23;20393;-96
2021/07/20 04:08:19;;;;;;;13.40;11.90;;;22.70;99.90;;;;;;6189177;23;20388;-96
2021/07/20 04:10:46;;;;;;;17.10;12.73;;;22.80;99.90;;;;;;6188116;23;20454;-94
2021/07/20 04:13:13;;;;;;;17.50;12.10;;;22.70;99.90;;;;;;6187971;23;20377;-94
2021/07/20 04:15:50;;;;;;;16.20;12.93;;;22.80;99.90;;;;;;6187882;23;20383;-96
2021/07/20 04:18:17;;;;;;;15.30;12.10;;;22.80;99.90;;;;;;6188105;23;20403;-91
2021/07/20 04:20:44;;;;;;;13.30;11.90;;;22.80;99.90;;;;;;6187546;23;20441;-94
2021/07/20 04:23:11;;;;;;;14.50;12.67;;;22.80;99.90;;;;;;6189128;23;20401;-94
2021/07/20 04:25:38;;;;;;;16.60;12.53;;;22.90;99.90;;;;;;6187821;23;20388;-92
2021/07/20 04:28:06;;;;;;;14.43;12.23;;;22.90;99.90;;;;;;6187246;23;20405;-93
2021/07/20 04:30:36;;;;;;;13.50;11.40;;;22.90;99.90;;;;;;6187197;23;20391;-94
2021/07/20 04:33:02;;;;;;;13.67;11.73;;;22.90;99.90;;;;;;6187693;23;20416;-95
2021/07/20 04:35:29;;;;;;;15.13;11.67;;;23.00;99.90;;;;;;6189741;23;20380;-94
2021/07/20 04:37:55;;;;;;;13.33;11.47;;;23.00;99.90;;;;;;6187521;23;20514;-93
2021/07/20 04:40:21;;;;;;;14.63;11.70;;;23.00;99.90;;;;;;6188400;23;20463;-91
2021/07/20 04:42:48;;;;;;;12.60;11.17;;;23.00;99.90;;;;;;6187684;23;20409;-92
2021/07/20 04:45:15;;;;;;;13.67;11.30;;;23.00;99.90;;;;;;6187632;23;20170;-90
2021/07/20 04:47:42;;;;;;;14.00;11.47;;;23.10;99.90;;;;;;6189616;23;20411;-95
2021/07/20 04:50:10;;;;;;;13.70;11.30;;;23.10;99.90;;;;;;6189192;23;20401;-94
2021/07/20 04:52:38;;;;;;;14.37;11.67;;;23.10;99.90;;;;;;6193230;23;20463;-92
2021/07/20 04:55:05;;;;;;;15.80;12.57;;;23.10;99.90;;;;;;6188048;23;20389;-93
2021/07/20 04:57:31;;;;;;;14.07;11.60;;;23.20;99.90;;;;;;6187276;23;20406;-96
2021/07/20 04:59:58;;;;;;;15.87;11.60;;;23.20;99.90;;;;;;6188108;23;20429;-92
2021/07/20 05:02:25;;;;;;;12.57;11.20;;;23.20;99.90;;;;;;6187796;23;20420;-96
2021/07/20 05:04:52;;;;;;;17.33;11.87;;;23.30;99.90;;;;;;6188204;23;20400;-93
2021/07/20 05:07:22;;;;;;;17.73;12.50;;;23.30;99.90;;;;;;6187617;23;20393;-92
2021/07/20 05:09:50;;;;;;;15.37;11.60;;;23.30;99.90;;;;;;6189153;23;20464;-94
2021/07/20 05:12:16;;;;;;;14.00;11.83;;;23.40;99.90;;;;;;6187002;23;20748;-92
2021/07/20 05:14:42;;;;;;;15.33;11.67;;;23.40;99.90;;;;;;6187042;23;20404;-92
2021/07/20 05:17:10;;;;;;;12.37;10.90;;;23.40;99.90;;;;;;6187337;23;20255;-94
2021/07/20 05:19:37;;;;;;;15.73;12.13;;;23.50;99.90;;;;;;6187667;23;20404;-95
2021/07/20 05:22:04;;;;;;;13.90;11.87;;;23.50;99.90;;;;;;6186987;23;20445;-94
2021/07/20 05:24:33;;;;;;;15.40;11.93;;;23.50;99.90;;;;;;6187185;23;20838;-93
2021/07/20 05:27:00;;;;;;;14.33;11.63;;;23.50;99.90;;;;;;6189248;23;20404;-96
2021/07/20 05:29:27;;;;;;;14.30;11.70;;;23.60;99.90;;;;;;6193641;23;20398;-94
2021/07/20 05:31:55;;;;;;;16.30;12.57;;;23.60;99.90;;;;;;6203329;23;20386;-94
2021/07/20 05:34:21;;;;;;;13.53;11.60;;;23.60;99.90;;;;;;6207362;23;20379;-95
2021/07/20 05:36:47;;;;;;;13.23;11.73;;;23.60;99.90;;;;;;6204285;23;20425;-95
2021/07/20 05:39:13;;;;;;;14.03;12.23;;;23.70;99.90;;;;;;6189121;23;20598;-95
2021/07/20 05:41:40;;;;;;;18.57;13.70;;;23.70;99.90;;;;;;6186265;23;20480;-94
2021/07/20 05:44:10;;;;;;;15.60;12.23;;;23.70;99.90;;;;;;6186437;23;20399;-96
2021/07/20 05:46:38;;;;;;;13.93;11.63;;;23.80;99.90;;;;;;6186276;23;20394;-96
2021/07/20 05:49:04;;;;;;;15.00;11.60;;;23.80;99.90;;;;;;6189482;23;20381;-96
2021/07/20 05:51:37;;;;;;;14.93;12.23;;;23.80;99.90;;;;;;6186451;23;20419;-93
2021/07/20 05:54:04;;;;;;;14.20;11.67;;;23.90;99.90;;;;;;6184422;23;20417;-94
2021/07/20 05:56:30;;;;;;;13.40;11.10;;;23.90;99.90;;;;;;6189045;23;20821;-92
2021/07/20 05:58:58;;;;;;;17.50;12.87;;;23.90;99.90;;;;;;6187427;23;20492;-90
2021/07/20 06:01:25;;;;;;;12.83;10.93;;;24.00;99.90;;;;;;6180194;23;20456;-94
2021/07/20 06:03:53;;;;;;;17.30;12.03;;;24.00;99.90;;;;;;6185117;23;20682;-95
2021/07/20 06:06:20;;;;;;;15.20;11.90;;;24.00;99.90;;;;;;6182003;23;20408;-93
2021/07/20 06:08:46;;;;;;;13.07;10.93;;;24.00;99.90;;;;;;6180811;23;20405;-95
2021/07/20 06:11:12;;;;;;;14.23;11.13;;;24.00;99.90;;;;;;6181010;23;20430;-96
2021/07/20 06:13:40;;;;;;;12.83;11.50;;;24.00;99.90;;;;;;6180387;23;21069;-92
2021/07/20 06:16:07;;;;;;;12.80;10.37;;;24.10;99.90;;;;;;6182273;23;20390;-96
2021/07/20 06:18:36;;;;;;;13.43;11.50;;;24.10;99.90;;;;;;6184150;23;20402;-94
2021/07/20 06:21:05;;;;;;;14.30;11.37;;;24.10;99.90;;;;;;6192885;23;20503;-91
2021/07/20 06:23:40;;;;;;;14.37;10.60;;;24.20;99.90;;;;;;6181892;23;20398;-92
2021/07/20 06:26:07;;;;;;;13.93;11.10;;;24.20;99.90;;;;;;6179482;23;20409;-95
2021/07/20 06:28:35;;;;;;;18.47;12.20;;;24.30;99.90;;;;;;6179865;23;20493;-94
2021/07/20 06:31:01;;;;;;;16.73;12.30;;;24.30;99.90;;;;;;6180113;23;20418;-93
2021/07/20 06:33:28;;;;;;;16.87;12.27;;;24.40;99.90;;;;;;6181742;23;20402;-93
2021/07/20 06:35:54;;;;;;;13.20;10.37;;;24.40;99.90;;;;;;6181394;23;20735;-92
2021/07/20 06:38:23;;;;;;;13.77;11.53;;;24.50;99.90;;;;;;6179896;23;20501;-92
2021/07/20 06:40:51;;;;;;;16.97;11.70;;;24.50;99.90;;;;;;6179622;23;20439;-93
2021/07/20 06:43:18;;;;;;;16.03;11.73;;;24.60;99.90;;;;;;6181857;23;20853;-96
2021/07/20 06:45:46;;;;;;;15.67;10.60;;;24.60;99.90;;;;;;6184489;23;20392;-94
2021/07/20 06:48:13;;;;;;;14.90;11.10;;;24.70;99.90;;;;;;6185152;23;20402;-92
2021/07/20 06:50:40;;;;;;;19.13;11.67;;;24.70;99.90;;;;;;6191554;23;20393;-91
2021/07/20 06:53:07;;;;;;;14.43;10.97;;;24.80;99.90;;;;;;6190735;23;20406;-91
2021/07/20 06:55:37;;;;;;;14.87;11.27;;;24.90;99.90;;;;;;6186051;23;20379;-93
2021/07/20 06:58:05;;;;;;;16.13;11.27;;;24.90;99.90;;;;;;6197154;23;20388;-95
2021/07/20 07:00:32;;;;;;;16.33;13.27;;;25.00;99.90;;;;;;6194278;23;20445;-96
2021/07/20 07:03:00;;;;;;;21.57;12.17;;;25.00;99.90;;;;;;6195435;23;20462;-93
2021/07/20 07:05:29;;;;;;;16.70;11.27;;;25.00;99.90;;;;;;6204119;23;20400;-93
2021/07/20 07:07:57;;;;;;;13.40;11.73;;;25.00;99.90;;;;;;6185790;23;20399;-94
2021/07/20 07:10:26;;;;;;;14.53;11.87;;;25.00;99.90;;;;;;6183403;23;20400;-95
2021/07/20 07:12:53;;;;;;;17.70;11.77;;;25.00;99.90;;;;;;6182568;23;20407;-96
2021/07/20 07:15:20;;;;;;;16.00;11.47;;;25.00;99.90;;;;;;6186542;23;20399;-94
2021/07/20 07:17:50;;;;;;;16.90;12.93;;;25.00;99.90;;;;;;6188064;23;20921;-90
2021/07/20 07:20:18;;;;;;;15.13;11.60;;;25.00;99.90;;;;;;6187035;23;20442;-90
2021/07/20 07:22:46;;;;;;;16.77;13.40;;;25.10;99.90;;;;;;6184127;23;20415;-90
2021/07/20 07:25:13;;;;;;;14.27;11.93;;;25.10;99.90;;;;;;6183246;23;20406;-93
2021/07/20 07:27:40;;;;;;;15.70;11.97;;;25.10;99.90;;;;;;6183403;23;20416;-92
2021/07/20 07:30:07;;;;;;;12.70;11.03;;;25.10;99.90;;;;;;6182475;23;20383;-92
2021/07/20 07:32:33;;;;;;;13.70;11.70;;;25.10;99.90;;;;;;6184766;23;20400;-91
2021/07/20 07:35:00;;;;;;;14.80;11.47;;;25.10;99.90;;;;;;6184055;23;20388;-93
2021/07/20 07:37:27;;;;;;;16.10;12.10;;;25.20;99.90;;;;;;6183971;23;20451;-92
2021/07/20 07:39:55;;;;;;;16.47;11.37;;;25.20;99.90;;;;;;6185529;23;20411;-94
2021/07/20 07:42:22;;;;;;;15.07;11.50;;;25.30;99.90;;;;;;6189872;23;20443;-94
2021/07/20 07:44:50;;;;;;;15.23;11.07;;;25.30;99.90;;;;;;6191833;23;20717;-94
2021/07/20 07:47:16;;;;;;;14.47;11.10;;;25.30;99.90;;;;;;6187370;23;20416;-92
2021/07/20 07:49:44;;;;;;;15.70;11.57;;;25.30;99.90;;;;;;6191998;23;20392;-91
2021/07/20 07:52:16;;;;;;;15.23;12.20;;;25.30;99.90;;;;;;6185372;23;20442;-93
2021/07/20 07:54:44;;;;;;;14.00;12.00;;;25.30;99.90;;;;;;6186619;23;20407;-91
2021/07/20 07:57:10;;;;;;;14.53;11.47;;;25.30;99.90;;;;;;6183620;23;20419;-93
2021/07/20 07:59:39;;;;;;;13.30;11.90;;;25.30;99.90;;;;;;6185679;23;20395;-94
2021/07/20 08:02:08;;;;;;;14.53;11.73;;;25.30;99.90;;;;;;6186499;23;20455;-93
2021/07/20 08:04:35;;;;;;;17.37;11.80;;;25.20;99.90;;;;;;6184686;23;20391;-94
2021/07/20 08:07:02;;;;;;;17.60;11.80;;;25.20;99.90;;;;;;6184159;23;20450;-96
2021/07/20 08:09:30;;;;;;;15.87;12.17;;;25.30;99.90;;;;;;6184420;23;20874;-93
2021/07/20 08:11:59;;;;;;;12.63;11.30;;;25.30;99.90;;;;;;6185921;23;20411;-92
2021/07/20 08:14:27;;;;;;;14.73;11.03;;;25.30;99.90;;;;;;6184586;23;20395;-95
2021/07/20 08:17:02;;;;;;;16.23;11.30;;;25.30;99.90;;;;;;6185170;23;20412;-94
2021/07/20 08:19:31;;;;;;;16.07;11.87;;;25.30;99.90;;;;;;6185891;23;20470;-93
2021/07/20 08:22:01;;;;;;;13.70;11.60;;;25.30;99.90;;;;;;6192698;23;20510;-93
2021/07/20 08:24:29;;;;;;;15.37;11.53;;;25.40;99.90;;;;;;6184492;23;20399;-91
2021/07/20 08:27:00;;;;;;;17.20;10.90;;;25.40;99.90;;;;;;6181515;23;20461;-93
2021/07/20 08:29:36;;;;;;;16.63;12.03;;;25.40;99.90;;;;;;6182710;23;20388;-94
2021/07/20 08:32:10;;;;;;;13.57;11.33;;;25.40;99.90;;;;;;6180573;23;20522;-92
2021/07/20 08:34:43;;;;;;;13.80;10.60;;;25.40;99.90;;;;;;6183989;23;20396;-93
2021/07/20 08:37:10;;;;;;;14.57;11.00;;;25.50;99.90;;;;;;6189447;23;20450;-94
2021/07/20 08:39:38;;;;;;;16.67;11.60;;;25.60;99.90;;;;;;6194000;23;20437;-92
2021/07/20 08:42:12;;;;;;;13.27;11.37;;;25.60;99.90;;;;;;6198337;23;20586;-92
2021/07/20 08:45:06;;;;;;;13.23;11.00;;;25.60;99.90;;;;;;6201993;23;20415;-96
2021/07/20 08:47:40;;;;;;;13.87;11.90;;;25.70;99.90;;;;;;6191742;23;20403;-96
2021/07/20 08:50:09;;;;;;;14.70;11.03;;;25.70;99.90;;;;;;6188760;23;20391;-92
2021/07/20 08:52:42;;;;;;;12.50;11.10;;;25.80;99.90;;;;;;6191708;23;20419;-96
2021/07/20 08:55:20;;;;;;;14.37;11.00;;;25.80;99.90;;;;;;6192620;23;20377;-92
2021/07/20 08:57:50;;;;;;;12.73;11.43;;;25.80;99.90;;;;;;6185594;23;20419;-96
2021/07/20 09:00:19;;;;;;;13.20;11.47;;;25.80;99.90;;;;;;6187534;23;20384;-96
2021/07/20 09:03:02;;;;;;;16.43;11.20;;;25.90;99.90;;;;;;6186201;23;20415;-96
2021/07/20 09:05:37;;;;;;;20.90;12.17;;;25.90;99.90;;;;;;6188902;23;20396;-92
2021/07/20 09:08:40;;;;;;;13.23;11.50;;;25.90;99.90;;;;;;6188219;23;20396;-94
2021/07/20 09:11:31;;;;;;;15.30;11.63;;;26.00;99.90;;;;;;6182556;23;20478;-93
2021/07/20 09:14:35;;;;;;;14.43;11.50;;;26.00;99.90;;;;;;6166321;23;20399;-94
2021/07/20 09:17:10;;;;;;;16.50;11.60;;;26.00;99.90;;;;;;6190585;23;20427;-93
2021/07/20 09:19:45;;;;;;;18.23;12.63;;;26.10;99.90;;;;;;6184491;23;20475;-91
2021/07/20 09:22:16;;;;;;;16.37;11.20;;;26.10;99.90;;;;;;6184658;23;20456;-95
2021/07/20 09:24:58;;;;;;;14.83;11.60;;;26.20;99.90;;;;;;6185094;23;20775;-96
2021/07/20 09:27:51;;;;;;;16.27;12.30;;;26.30;99.90;;;;;;6183674;23;20415;-91
2021/07/20 09:30:20;;;;;;;13.10;11.00;;;26.50;99.90;;;;;;6183678;23;20411;-90
2021/07/20 09:33:35;;;;;;;13.37;10.67;;;26.60;99.90;;;;;;6184689;23;20415;-94
2021/07/20 09:36:12;;;;;;;17.70;11.97;;;26.70;99.90;;;;;;6103396;23;20463;-94
2021/07/20 09:39:04;;;;;;;16.10;13.23;;;26.80;99.90;;;;;;6186453;23;20522;-95
2021/07/20 09:41:50;;;;;;;16.50;13.03;;;26.90;99.90;;;;;;6197057;23;20480;-94
2021/07/20 09:44:37;;;;;;;18.07;12.10;;;27.00;99.90;;;;;;6186863;23;20397;-93
2021/07/20 09:47:10;;;;;;;14.30;11.50;;;27.00;99.90;;;;;;6186755;23;20940;-94
2021/07/20 09:49:52;;;;;;;12.53;11.13;;;27.10;99.90;;;;;;6192131;23;20419;-91
2021/07/20 09:52:41;;;;;;;17.90;11.70;;;27.10;99.90;;;;;;6190507;23;20413;-96
2021/07/20 09:55:24;;;;;;;14.13;11.57;;;27.20;99.90;;;;;;6184247;23;20454;-94
2021/07/20 09:58:23;;;;;;;13.27;11.37;;;27.30;99.90;;;;;;6184799;23;20849;-92
2021/07/20 10:01:28;;;;;;;14.37;11.70;;;27.20;99.90;;;;;;6116355;23;20452;-93
2021/07/20 10:04:00;;;;;;;16.23;10.93;;;27.20;99.90;;;;;;6184763;23;20373;-93
2021/07/20 10:06:42;;;;;;;16.10;11.00;;;27.10;99.90;;;;;;6182796;23;20956;-93
2021/07/20 10:10:06;;;;;;;15.03;10.47;;;27.10;99.90;;;;;;6183446;23;20392;-91
2021/07/20 10:13:04;;;;;;;14.33;10.60;;;27.10;99.90;;;;;;6096214;23;20448;-94
2021/07/20 10:15:50;;;;;;;13.80;11.13;;;27.10;99.90;;;;;;6188850;23;20389;-91
2021/07/20 10:18:36;;;;;;;14.43;10.90;;;27.20;99.90;;;;;;6183982;23;20384;-94
2021/07/20 10:21:06;;;;;;;14.27;11.53;;;27.30;99.90;;;;;;6183536;23;20449;-94
2021/07/20 10:23:43;;;;;;;14.60;11.43;;;27.40;99.90;;;;;;6183203;23;20828;-90
2021/07/20 10:26:35;;;;;;;15.17;11.83;;;27.40;99.90;;;;;;6183063;23;20831;-95
2021/07/20 10:29:18;;;;;;;17.43;10.80;;;27.50;99.90;;;;;;6185360;23;20361;-94
2021/07/20 10:31:50;;;;;;;13.07;10.90;;;27.50;99.90;;;;;;6183298;23;20432;-93
2021/07/20 10:34:18;;;;;;;15.60;11.60;;;27.60;99.90;;;;;;6187679;23;20374;-91
2021/07/20 10:36:51;;;;;;;13.93;10.30;;;27.70;99.90;;;;;;6194399;23;20484;-91
2021/07/20 10:39:21;;;;;;;15.00;12.30;;;27.70;99.90;;;;;;6184653;23;20381;-90
2021/07/20 10:41:58;;;;;;;20.57;13.10;;;27.80;99.90;;;;;;6190052;23;20448;-92
2021/07/20 10:44:35;;;;;;;13.13;11.00;;;27.80;99.90;;;;;;6186008;23;20377;-92
2021/07/20 10:47:05;;;;;;;15.60;11.30;;;27.90;99.90;;;;;;6185121;23;20516;-95
2021/07/20 10:49:57;;;;;;;13.20;11.27;;;28.00;99.90;;;;;;6184916;23;20398;-93
2021/07/20 10:52:41;;;;;;;14.87;11.20;;;28.00;99.90;;;;;;6184350;23;20422;-91
2021/07/20 10:55:21;;;;;;;15.13;11.40;;;28.00;99.90;;;;;;6183991;23;20389;-95
2021/07/20 10:57:59;;;;;;;12.37;11.17;;;28.10;99.90;;;;;;6183817;23;20397;-93
2021/07/20 11:00:32;;;;;;;15.50;10.80;;;28.10;99.90;;;;;;6184101;23;20406;-95
2021/07/20 11:03:26;;;;;;;13.20;10.33;;;28.10;99.90;;;;;;6186294;23;20385;-91
2021/07/20 11:05:52;;;;;;;14.70;11.40;;;28.20;99.90;;;;;;6186407;23;20399;-91
2021/07/20 11:08:19;;;;;;;16.83;11.07;;;28.30;99.90;;;;;;6190227;23;20406;-93
2021/07/20 11:10:51;;;;;;;13.03;10.80;;;28.30;99.90;;;;;;6189742;23;20405;-93
2021/07/20 11:13:26;;;;;;;14.50;10.47;;;28.40;99.90;;;;;;6180982;23;20384;-96
2021/07/20 11:15:54;;;;;;;12.17;10.80;;;28.50;99.90;;;;;;6182427;23;20796;-93
2021/07/20 11:18:26;;;;;;;14.00;11.13;;;28.50;99.90;;;;;;6183606;23;20389;-91
2021/07/20 11:20:59;;;;;;;14.40;11.50;;;28.50;99.90;;;;;;6184051;23;20541;-95
2021/07/20 11:23:26;;;;;;;17.53;12.10;;;28.60;99.90;;;;;;6185217;23;20374;-92
2021/07/20 11:25:53;;;;;;;16.43;11.87;;;28.60;99.90;;;;;;6200438;23;20867;-93
2021/07/20 11:28:20;;;;;;;13.07;11.37;;;28.60;99.90;;;;;;6189917;23;20398;-90
2021/07/20 11:30:49;;;;;;;14.07;11.30;;;28.60;99.90;;;;;;6184681;23;20884;-94
2021/07/20 11:33:49;;;;;;;11.50;10.30;;;28.60;99.90;;;;;;6182794;23;20373;-95
2021/07/20 11:36:20;;;;;;;13.87;11.00;;;28.70;99.90;;;;;;6173688;23;20431;-95
2021/07/20 11:38:50;;;;;;;13.80;10.03;;;28.70;99.90;;;;;;6179936;23;20765;-95
2021/07/20 11:41:34;;;;;;;11.77;9.90;;;28.70;99.90;;;;;;6182571;23;20455;-95
2021/07/20 11:44:25;;;;;;;12.87;10.93;;;28.80;99.90;;;;;;6183472;23;20404;-92
2021/07/20 11:46:58;;;;;;;14.40;11.17;;;28.80;99.90;;;;;;6183915;23;20438;-92
2021/07/20 11:50:10;;;;;;;12.60;11.20;;;28.70;99.90;;;;;;6186181;23;20377;-92
2021/07/20 11:52:47;;;;;;;10.97;9.50;;;28.70;99.90;;;;;;6181170;23;20490;-93
2021/07/20 11:55:56;;;;;;;12.43;10.20;;;28.70;99.90;;;;;;6191000;23;20398;-96
2021/07/20 11:58:23;;;;;;;16.13;10.33;;;28.70;99.90;;;;;;6187576;23;20908;-95
2021/07/20 12:01:02;;;;;;;17.30;11.10;;;28.60;99.90;;;;;;6185524;23;20532;-94
2021/07/20 12:04:19;;;;;;;12.27;10.10;;;28.60;99.90;;;;;;6185982;23;20431;-93
2021/07/20 12:07:23;;;;;;;15.83;10.33;;;28.70;99.90;;;;;;6121834;23;20423;-90
2021/07/20 12:10:16;;;;;;;12.67;9.40;;;28.60;99.90;;;;;;6187159;23;20395;-92
2021/07/20 12:12:45;;;;;;;13.70;9.20;;;28.60;99.90;;;;;;6185546;23;20515;-90
2021/07/20 12:15:16;;;;;;;12.50;10.00;;;28.60;99.90;;;;;;6184677;23;20970;-93
2021/07/20 12:17:43;;;;;;;11.93;9.20;;;28.60;99.90;;;;;;6186484;23;20484;-90
2021/07/20 12:20:11;;;;;;;17.33;11.37;;;28.60;99.90;;;;;;6186559;23;20379;-94
2021/07/20 12:22:39;;;;;;;12.17;10.37;;;28.60;99.90;;;;;;6185725;23;20451;-93
2021/07/20 12:25:09;;;;;;;15.17;11.63;;;28.60;99.90;;;;;;6186644;23;20380;-91
2021/07/20 12:27:37;;;;;;;16.43;10.43;;;28.60;99.90;;;;;;6186903;23;20790;-93
2021/07/20 12:30:11;;;;;;;11.97;9.87;;;28.60;99.90;;;;;;6187045;23;20400;-91
2021/07/20 12:32:39;;;;;;;14.47;9.67;;;28.70;99.90;;;;;;6187844;23;20410;-90
2021/07/20 12:35:06;;;;;;;13.27;10.20;;;28.70;99.90;;;;;;6187138;23;20448;-90
2021/07/20 12:37:32;;;;;;;11.37;10.17;;;28.70;99.90;;;;;;6189738;23;20427;-94
2021/07/20 12:39:59;;;;;;;13.40;10.50;;;28.70;99.90;;;;;;6187626;23;20451;-91
2021/07/20 12:42:42;;;;;;;14.47;11.20;;;28.80;99.90;;;;;;6188057;23;20500;-94
2021/07/20 12:45:13;;;;;;;13.60;10.23;;;28.80;99.90;;;;;;6186046;23;20392;-93
2021/07/20 12:47:44;;;;;;;15.97;11.83;;;28.80;99.90;;;;;;6187882;23;20411;-93
2021/07/20 12:50:16;;;;;;;18.33;11.03;;;28.90;99.90;;;;;;6187588;23;20683;-93
2021/07/20 12:52:44;;;;;;;14.33;11.30;;;28.90;99.90;;;;;;6186979;23;20422;-92
2021/07/20 12:55:18;;;;;;;12.10;10.80;;;28.90;99.90;;;;;;6187618;23;20382;-92